Terminal Aerodrome Forecast
Issued by NWS Miami, FL

Current Version | Previous Version | Text Only | Print | Product List | Glossary On
Versions: 1 2 3 4 5 6 7 8 9 10 11 12 13 14 15 16 17 18 19 20 21 22 23 24 25 26
000
FTUS42 KMFL 271449 AAA
TAFFLL
TAF AMD
KFLL 271449Z 2715/2812 VRB05KT P6SM VCTS SCT025CB
     FM271600 08008KT P6SM VCSH SCT025 SCT080
     FM271900 12008KT P6SM SCT025
     FM280200 VRB03KT P6SM SCT025=

USA.gov is the U.S. government's official web portal to all federal, state and local government web resources and services.